createdAt,value
2017-11-03T00:01:15.325Z,9.80
2017-11-03T00:03:43.584Z,9.80
2017-11-03T00:06:11.964Z,9.80
2017-11-03T00:08:40.209Z,9.90
2017-11-03T00:11:08.528Z,9.90
2017-11-03T00:13:36.784Z,9.90
2017-11-03T00:16:05.278Z,9.90
2017-11-03T00:18:33.539Z,9.90
2017-11-03T00:21:02.037Z,9.80
2017-11-03T00:23:31.089Z,9.80
2017-11-03T00:25:59.421Z,9.80
2017-11-03T00:28:27.787Z,9.70
2017-11-03T00:30:56.373Z,9.60
2017-11-03T00:33:24.875Z,9.70
2017-11-03T00:35:53.242Z,9.70
2017-11-03T00:38:21.528Z,9.70
2017-11-03T00:40:49.805Z,9.60
2017-11-03T00:43:18.052Z,9.60
2017-11-03T00:45:46.342Z,9.60
2017-11-03T00:48:14.614Z,9.60
2017-11-03T00:50:42.907Z,9.70
2017-11-03T00:53:11.281Z,9.70
2017-11-03T00:55:39.563Z,9.80
2017-11-03T00:58:07.820Z,9.80
2017-11-03T01:00:36.113Z,9.80
2017-11-03T01:03:04.364Z,9.70
2017-11-03T01:05:32.661Z,9.80
2017-11-03T01:08:00.912Z,9.80
2017-11-03T01:10:29.184Z,9.80
2017-11-03T01:12:57.437Z,9.80
2017-11-03T01:15:26.611Z,9.80
2017-11-03T01:17:54.966Z,9.80
2017-11-03T01:20:23.340Z,9.80
2017-11-03T01:22:51.617Z,9.90
2017-11-03T01:25:19.888Z,9.90
2017-11-03T01:27:48.146Z,9.80
2017-11-03T01:30:16.430Z,9.80
2017-11-03T01:32:44.680Z,9.70
2017-11-03T01:35:12.965Z,9.60
2017-11-03T01:37:41.286Z,9.70
2017-11-03T01:40:09.575Z,9.70
2017-11-03T01:42:37.859Z,9.70
2017-11-03T01:45:06.215Z,9.70
2017-11-03T01:47:34.489Z,9.70
2017-11-03T01:50:02.775Z,9.80
2017-11-03T01:52:31.020Z,9.80
2017-11-03T01:54:59.297Z,9.80
2017-11-03T01:57:27.578Z,9.80
2017-11-03T01:59:55.832Z,9.80
2017-11-03T02:02:24.159Z,9.80
2017-11-03T02:04:52.405Z,9.80
2017-11-03T02:07:20.672Z,9.80
2017-11-03T02:09:48.920Z,9.80
2017-11-03T02:12:17.982Z,9.80
2017-11-03T02:14:46.229Z,9.80
2017-11-03T02:17:14.505Z,9.90
2017-11-03T02:19:42.765Z,9.80
2017-11-03T02:22:11.032Z,9.80
2017-11-03T02:24:40.084Z,9.90
2017-11-03T02:27:08.348Z,9.80
2017-11-03T02:29:36.617Z,9.90
2017-11-03T02:32:04.910Z,9.90
2017-11-03T02:34:33.159Z,9.90
2017-11-03T02:37:01.443Z,9.90
2017-11-03T02:39:29.751Z,9.80
2017-11-03T02:41:58.026Z,9.90
2017-11-03T02:44:26.275Z,9.80
2017-11-03T02:46:54.545Z,9.80
2017-11-03T02:49:22.805Z,9.80
2017-11-03T02:51:51.087Z,9.80
2017-11-03T02:54:19.353Z,9.90
2017-11-03T02:56:48.398Z,10.00
2017-11-03T02:59:16.658Z,9.90
2017-11-03T03:01:44.975Z,9.90
2017-11-03T03:04:13.335Z,9.90
2017-11-03T03:06:41.616Z,9.90
2017-11-03T03:09:09.860Z,9.90
2017-11-03T03:11:38.138Z,9.90
2017-11-03T03:14:06.388Z,9.90
2017-11-03T03:16:35.431Z,10.00
2017-11-03T03:19:03.735Z,9.90
2017-11-03T03:21:32.003Z,9.90
2017-11-03T03:24:00.259Z,10.00
2017-11-03T03:26:28.532Z,10.00
2017-11-03T03:28:56.797Z,10.00
2017-11-03T03:31:25.074Z,10.00
2017-11-03T03:33:53.402Z,10.10
2017-11-03T03:36:21.663Z,10.10
2017-11-03T03:38:49.924Z,10.00
2017-11-03T03:41:18.187Z,9.90
2017-11-03T03:43:46.431Z,9.90
2017-11-03T03:46:15.464Z,9.90
2017-11-03T03:48:43.716Z,9.80
2017-11-03T03:51:11.986Z,9.90
2017-11-03T03:53:40.241Z,9.90
2017-11-03T03:56:09.275Z,9.80
2017-11-03T03:58:37.542Z,9.80
2017-11-03T04:01:05.826Z,9.90
2017-11-03T04:03:34.179Z,9.90
2017-11-03T04:06:03.336Z,10.00
2017-11-03T04:08:31.586Z,10.00
2017-11-03T04:10:59.881Z,10.10
2017-11-03T04:13:28.159Z,10.10
2017-11-03T04:15:56.454Z,10.20
2017-11-03T04:18:24.728Z,10.20
2017-11-03T04:20:53.092Z,10.20
2017-11-03T04:23:21.471Z,10.20
2017-11-03T04:25:49.758Z,10.10
2017-11-03T04:28:18.126Z,10.10
2017-11-03T04:30:46.381Z,10.00
2017-11-03T04:33:14.663Z,10.00
2017-11-03T04:35:42.957Z,10.00
2017-11-03T04:38:11.235Z,10.00
2017-11-03T04:40:39.513Z,10.00
2017-11-03T04:43:07.790Z,9.90
2017-11-03T04:45:36.074Z,10.00
2017-11-03T04:48:04.466Z,9.90
2017-11-03T04:50:32.734Z,9.90
2017-11-03T04:53:01.010Z,9.90
2017-11-03T04:55:29.264Z,9.90
2017-11-03T04:57:57.553Z,9.80
2017-11-03T05:00:25.805Z,9.80
2017-11-03T05:02:54.076Z,9.80
2017-11-03T05:05:22.349Z,9.70
2017-11-03T05:07:50.672Z,9.70
2017-11-03T05:10:18.957Z,9.70
2017-11-03T05:12:47.327Z,9.70
2017-11-03T05:15:15.598Z,9.70
2017-11-03T05:17:43.982Z,9.60
2017-11-03T05:20:12.568Z,9.60
2017-11-03T05:22:40.852Z,9.60
2017-11-03T05:25:09.935Z,9.70
2017-11-03T05:27:38.188Z,9.70
2017-11-03T05:30:06.480Z,9.70
2017-11-03T05:32:34.742Z,9.80
2017-11-03T05:35:03.034Z,9.80
2017-11-03T05:37:31.295Z,9.80
2017-11-03T05:39:59.566Z,9.70
2017-11-03T05:42:27.830Z,9.70
2017-11-03T05:44:56.101Z,9.70
2017-11-03T05:47:25.116Z,9.70
2017-11-03T05:49:53.413Z,9.70
2017-11-03T05:52:21.694Z,9.70
2017-11-03T05:54:49.978Z,9.60
2017-11-03T05:57:18.483Z,9.60
2017-11-03T05:59:46.834Z,9.60
2017-11-03T06:02:15.139Z,9.60
2017-11-03T06:04:43.431Z,9.50
2017-11-03T06:07:12.448Z,9.50
2017-11-03T06:09:40.761Z,9.40
2017-11-03T06:12:09.029Z,9.50
2017-11-03T06:14:37.318Z,9.40
2017-11-03T06:17:06.286Z,9.50
2017-11-03T06:19:34.557Z,9.50
2017-11-03T06:22:02.813Z,9.60
2017-11-03T06:24:31.132Z,9.60
2017-11-03T06:26:59.408Z,9.70
2017-11-03T06:29:27.692Z,9.90
2017-11-03T06:31:57.619Z,10.10
2017-11-03T06:34:25.995Z,10.00
2017-11-03T06:36:54.289Z,10.00
2017-11-03T06:39:22.660Z,10.10
2017-11-03T06:41:50.930Z,10.30
2017-11-03T06:44:19.310Z,10.30
2017-11-03T06:46:47.579Z,10.20
2017-11-03T06:49:15.974Z,10.30
2017-11-03T06:51:45.766Z,10.30
2017-11-03T06:54:14.151Z,10.30
2017-11-03T06:56:42.441Z,10.30
2017-11-03T06:59:10.726Z,10.20
2017-11-03T07:01:38.988Z,10.20
2017-11-03T07:04:07.278Z,10.10
2017-11-03T07:06:35.531Z,10.00
2017-11-03T07:09:03.819Z,10.10
2017-11-03T07:11:32.096Z,10.00
2017-11-03T07:14:00.479Z,10.10
2017-11-03T07:16:28.844Z,10.10
2017-11-03T07:18:57.219Z,10.10
2017-11-03T07:21:25.522Z,10.10
2017-11-03T07:23:53.994Z,10.00
2017-11-03T07:26:22.384Z,10.00
2017-11-03T07:28:50.750Z,10.00
2017-11-03T07:31:19.234Z,9.90
2017-11-03T07:33:47.484Z,9.90
2017-11-03T07:36:15.769Z,9.90
2017-11-03T07:38:44.021Z,9.90
2017-11-03T07:41:12.319Z,9.90
2017-11-03T07:43:40.592Z,10.00
2017-11-03T07:46:08.864Z,10.00
2017-11-03T07:48:37.141Z,10.10
2017-11-03T07:51:05.428Z,10.10
2017-11-03T07:53:33.720Z,10.10
2017-11-03T07:56:02.002Z,10.10
2017-11-03T07:58:30.264Z,10.20
2017-11-03T08:00:58.549Z,10.10
2017-11-03T08:03:26.869Z,10.20
2017-11-03T08:05:55.920Z,10.30
2017-11-03T08:08:24.196Z,10.30
2017-11-03T08:10:52.579Z,10.30
2017-11-03T08:13:20.859Z,10.20
2017-11-03T08:15:49.173Z,10.30
2017-11-03T08:18:18.275Z,10.30
2017-11-03T08:20:47.331Z,10.50
2017-11-03T08:23:15.599Z,10.40
2017-11-03T08:25:43.977Z,10.40
2017-11-03T08:28:12.256Z,10.40
2017-11-03T08:30:40.643Z,10.50
2017-11-03T08:33:08.923Z,10.50
2017-11-03T08:35:37.189Z,10.60
2017-11-03T08:38:05.475Z,10.70
2017-11-03T08:40:33.744Z,11.00
2017-11-03T08:43:02.020Z,11.00
2017-11-03T08:45:30.296Z,11.10
2017-11-03T08:47:58.590Z,11.20
2017-11-03T08:50:26.859Z,11.30
2017-11-03T08:52:55.123Z,11.40
2017-11-03T08:55:23.409Z,11.50
2017-11-03T08:57:52.264Z,11.50
2017-11-03T09:00:20.580Z,11.50
2017-11-03T09:02:48.837Z,11.50
2017-11-03T09:05:17.110Z,11.50
2017-11-03T09:07:45.379Z,11.40
2017-11-03T09:10:13.670Z,11.60
2017-11-03T09:12:41.922Z,11.70
2017-11-03T09:15:10.196Z,11.90
2017-11-03T09:17:38.452Z,11.80
2017-11-03T09:20:07.619Z,11.90
2017-11-03T09:22:35.893Z,11.90
2017-11-03T09:25:04.174Z,11.80
2017-11-03T09:27:32.458Z,11.70
2017-11-03T09:30:00.737Z,11.70
2017-11-03T09:32:29.015Z,11.90
2017-11-03T09:34:57.486Z,12.00
2017-11-03T09:37:25.772Z,12.00
2017-11-03T09:39:54.037Z,12.10
2017-11-03T09:42:22.312Z,12.20
2017-11-03T09:44:50.585Z,12.00
2017-11-03T09:47:18.959Z,12.10
2017-11-03T09:49:47.228Z,12.30
2017-11-03T09:52:15.496Z,12.50
2017-11-03T09:54:43.775Z,12.50
2017-11-03T09:57:12.180Z,12.40
2017-11-03T09:59:40.439Z,12.50
2017-11-03T10:02:08.724Z,12.20
2017-11-03T10:04:37.006Z,12.30
2017-11-03T10:07:05.399Z,12.30
2017-11-03T10:09:33.656Z,12.30
2017-11-03T10:12:02.042Z,12.30
2017-11-03T10:14:30.304Z,12.10
2017-11-03T10:16:58.602Z,12.20
2017-11-03T10:19:26.847Z,12.00
2017-11-03T10:21:55.166Z,11.90
2017-11-03T10:24:23.432Z,12.00
2017-11-03T10:26:51.818Z,12.20
2017-11-03T10:29:20.089Z,12.20
2017-11-03T10:31:48.349Z,12.20
2017-11-03T10:34:16.748Z,12.30
2017-11-03T10:36:45.019Z,12.30
2017-11-03T10:39:13.295Z,12.40
2017-11-03T10:41:41.587Z,12.50
2017-11-03T10:44:09.852Z,12.60
2017-11-03T10:46:38.233Z,12.70
2017-11-03T10:49:06.480Z,12.70
2017-11-03T10:51:34.770Z,12.40
2017-11-03T10:54:03.034Z,12.50
2017-11-03T10:56:31.317Z,12.60
2017-11-03T10:58:59.590Z,12.70
2017-11-03T11:01:27.849Z,12.70
2017-11-03T11:03:56.166Z,12.70
2017-11-03T11:06:24.461Z,12.70
2017-11-03T11:08:52.733Z,12.60
2017-11-03T11:11:21.002Z,12.60
2017-11-03T11:13:49.300Z,12.60
2017-11-03T11:16:17.568Z,12.60
2017-11-03T11:18:45.850Z,12.50
2017-11-03T11:21:14.121Z,12.50
2017-11-03T11:23:42.397Z,12.70
2017-11-03T11:26:10.692Z,12.80
2017-11-03T11:28:38.951Z,12.80
2017-11-03T11:31:07.208Z,12.60
2017-11-03T11:33:35.589Z,12.80
2017-11-03T11:36:03.871Z,12.90
2017-11-03T11:38:32.158Z,13.00
2017-11-03T11:41:00.434Z,13.00
2017-11-03T11:43:28.911Z,13.10
2017-11-03T11:45:57.184Z,13.20
2017-11-03T11:48:25.465Z,13.10
2017-11-03T11:50:53.736Z,13.10
2017-11-03T11:53:22.009Z,13.10
2017-11-03T11:55:50.275Z,13.20
2017-11-03T11:58:18.570Z,13.10
2017-11-03T12:00:46.843Z,13.00
2017-11-03T12:03:15.117Z,13.00
2017-11-03T12:05:43.406Z,13.10
2017-11-03T12:08:11.668Z,13.00
2017-11-03T12:10:39.925Z,13.00
2017-11-03T12:13:08.209Z,12.60
2017-11-03T12:15:36.502Z,12.60
2017-11-03T12:18:04.788Z,12.60
2017-11-03T12:20:33.067Z,12.50
2017-11-03T12:23:01.445Z,12.30
2017-11-03T12:25:29.712Z,12.30
2017-11-03T12:27:57.987Z,12.20
2017-11-03T12:30:26.277Z,12.10
2017-11-03T12:32:54.551Z,12.00
2017-11-03T12:35:22.828Z,11.90
2017-11-03T12:37:51.140Z,12.00
2017-11-03T12:40:20.179Z,12.30
2017-11-03T12:42:48.440Z,12.30
2017-11-03T12:45:16.716Z,12.70
2017-11-03T12:47:45.022Z,13.00
2017-11-03T12:50:13.316Z,13.40
2017-11-03T12:52:41.568Z,13.20
2017-11-03T12:55:09.852Z,13.50
2017-11-03T12:57:38.125Z,13.50
2017-11-03T13:00:06.725Z,13.90
2017-11-03T13:02:35.096Z,14.10
2017-11-03T13:05:03.485Z,14.00
2017-11-03T13:07:31.744Z,14.00
2017-11-03T13:10:00.021Z,14.20
2017-11-03T13:12:28.280Z,14.10
2017-11-03T13:14:56.562Z,14.30
2017-11-03T13:17:24.815Z,14.50
2017-11-03T13:19:53.852Z,14.70
2017-11-03T13:22:22.123Z,14.70
2017-11-03T13:24:50.410Z,14.70
2017-11-03T13:27:18.682Z,14.50
2017-11-03T13:29:46.972Z,14.60
2017-11-03T13:32:15.232Z,14.40
2017-11-03T13:34:43.621Z,14.40
2017-11-03T13:37:11.872Z,14.20
2017-11-03T13:39:40.181Z,14.00
2017-11-03T13:42:08.457Z,14.00
2017-11-03T13:44:36.825Z,14.00
2017-11-03T13:47:05.105Z,14.10
2017-11-03T13:49:33.381Z,13.90
2017-11-03T13:52:01.671Z,13.80
2017-11-03T13:54:29.936Z,13.90
2017-11-03T13:56:58.207Z,14.00
2017-11-03T13:59:26.478Z,13.70
2017-11-03T14:01:54.742Z,13.60
2017-11-03T14:04:23.015Z,13.50
2017-11-03T14:06:51.274Z,13.30
2017-11-03T14:09:20.316Z,13.20
2017-11-03T14:11:48.573Z,13.20
2017-11-03T14:14:16.850Z,13.10
2017-11-03T14:16:45.105Z,12.90
2017-11-03T14:19:13.381Z,13.50
2017-11-03T14:21:41.658Z,14.70
2017-11-03T14:24:10.796Z,16.90
2017-11-03T14:26:39.076Z,16.90
2017-11-03T14:29:07.492Z,17.30
2017-11-03T14:31:35.843Z,18.70
2017-11-03T14:34:04.084Z,19.70
2017-11-03T14:36:32.362Z,20.40
2017-11-03T14:39:00.616Z,20.60
2017-11-03T14:41:28.935Z,21.60
2017-11-03T14:43:57.192Z,20.80
2017-11-03T14:46:25.478Z,20.80
2017-11-03T14:48:53.733Z,20.90
2017-11-03T14:51:22.020Z,20.30
2017-11-03T14:53:50.284Z,20.70
2017-11-03T14:56:18.567Z,20.50
2017-11-03T14:58:46.838Z,20.60
2017-11-03T15:01:15.111Z,20.40
2017-11-03T15:03:43.378Z,19.80
2017-11-03T15:06:12.425Z,19.60
2017-11-03T15:08:40.732Z,19.50
2017-11-03T15:11:09.001Z,18.90
2017-11-03T15:13:37.269Z,18.70
2017-11-03T15:16:05.551Z,18.20
2017-11-03T15:18:33.822Z,17.50
2017-11-03T15:21:02.105Z,17.30
2017-11-03T15:23:30.381Z,16.80
2017-11-03T15:25:58.653Z,16.10
2017-11-03T15:28:26.924Z,15.80
2017-11-03T15:30:55.223Z,15.30
2017-11-03T15:33:23.492Z,15.00
2017-11-03T15:35:51.864Z,14.60
2017-11-03T15:38:20.134Z,14.20
2017-11-03T15:40:48.537Z,13.80
2017-11-03T15:43:16.794Z,13.40
2017-11-03T15:45:45.176Z,13.20
2017-11-03T15:48:13.555Z,12.90
2017-11-03T15:50:41.821Z,12.70
2017-11-03T15:53:10.096Z,12.60
2017-11-03T15:55:38.384Z,12.40
2017-11-03T15:58:06.656Z,12.30
2017-11-03T16:00:35.041Z,12.20
2017-11-03T16:03:03.296Z,12.00
2017-11-03T16:05:31.576Z,11.90
2017-11-03T16:07:59.839Z,11.90
2017-11-03T16:10:28.116Z,11.80
2017-11-03T16:12:56.376Z,11.70
2017-11-03T16:15:24.702Z,11.60
2017-11-03T16:17:52.959Z,11.50
2017-11-03T16:20:21.249Z,11.40
2017-11-03T16:22:49.509Z,11.30
2017-11-03T16:25:17.779Z,11.30
2017-11-03T16:27:46.080Z,11.20
2017-11-03T16:30:14.486Z,11.10
2017-11-03T16:32:42.762Z,11.10
2017-11-03T16:35:11.063Z,11.00
2017-11-03T16:37:40.108Z,11.00
2017-11-03T16:40:08.368Z,10.90
2017-11-03T16:42:36.764Z,10.90
2017-11-03T16:45:05.035Z,10.80
2017-11-03T16:47:33.312Z,10.80
2017-11-03T16:50:01.577Z,10.70
2017-11-03T16:52:29.886Z,10.70
2017-11-03T16:54:58.144Z,10.70
2017-11-03T16:57:26.544Z,10.60
2017-11-03T16:59:54.913Z,10.60
2017-11-03T17:02:23.206Z,10.50
2017-11-03T17:04:51.465Z,10.50
2017-11-03T17:07:19.740Z,10.50
2017-11-03T17:09:48.021Z,10.40
2017-11-03T17:12:16.302Z,10.40
2017-11-03T17:14:44.571Z,10.40
2017-11-03T17:17:12.850Z,10.30
2017-11-03T17:19:41.134Z,10.30
2017-11-03T17:22:09.528Z,10.30
2017-11-03T17:24:37.789Z,10.30
2017-11-03T17:27:06.095Z,10.20
2017-11-03T17:29:35.129Z,10.20
2017-11-03T17:32:03.410Z,10.20
2017-11-03T17:34:31.709Z,10.20
2017-11-03T17:36:59.989Z,10.10
2017-11-03T17:39:28.250Z,10.10
2017-11-03T17:41:56.525Z,10.10
2017-11-03T17:44:24.827Z,10.00
2017-11-03T17:46:53.108Z,10.00
2017-11-03T17:49:22.137Z,9.90
2017-11-03T17:51:51.160Z,9.90
2017-11-03T17:54:19.479Z,9.90
2017-11-03T17:56:47.734Z,9.90
2017-11-03T17:59:16.024Z,9.90
2017-11-03T18:01:44.304Z,9.80
2017-11-03T18:04:12.589Z,9.80
2017-11-03T18:06:40.967Z,9.80
2017-11-03T18:09:09.240Z,9.80
2017-11-03T18:11:37.500Z,9.70
2017-11-03T18:14:05.787Z,9.70
2017-11-03T18:16:34.039Z,9.70
2017-11-03T18:19:02.323Z,9.70
2017-11-03T18:21:30.681Z,9.70
2017-11-03T18:23:58.946Z,9.70
2017-11-03T18:26:27.285Z,9.70
2017-11-03T18:28:55.649Z,9.70
2017-11-03T18:31:23.926Z,9.70
2017-11-03T18:33:52.200Z,9.70
2017-11-03T18:36:20.479Z,9.70
2017-11-03T18:38:48.865Z,9.70
2017-11-03T18:41:17.109Z,9.60
2017-11-03T18:43:45.412Z,9.60
2017-11-03T18:46:13.676Z,9.60
2017-11-03T18:48:41.968Z,9.60
2017-11-03T18:51:10.228Z,9.50
2017-11-03T18:53:38.515Z,9.60
2017-11-03T18:56:06.763Z,9.50
2017-11-03T18:58:35.044Z,9.50
2017-11-03T19:01:03.325Z,9.60
2017-11-03T19:03:32.460Z,9.60
2017-11-03T19:06:00.717Z,9.60
2017-11-03T19:08:29.004Z,9.60
2017-11-03T19:10:57.373Z,9.60
2017-11-03T19:13:25.755Z,9.70
2017-11-03T19:15:54.016Z,9.70
2017-11-03T19:18:22.445Z,9.70
2017-11-03T19:20:50.706Z,9.60
2017-11-03T19:23:18.986Z,9.70
2017-11-03T19:25:47.278Z,9.70
2017-11-03T19:28:15.585Z,9.60
2017-11-03T19:30:43.840Z,9.70
2017-11-03T19:33:12.894Z,9.60
2017-11-03T19:35:41.265Z,9.60
2017-11-03T19:38:09.525Z,9.60
2017-11-03T19:40:37.826Z,9.60
2017-11-03T19:43:06.092Z,9.50
2017-11-03T19:45:34.390Z,9.50
2017-11-03T19:48:03.412Z,9.40
2017-11-03T19:50:32.461Z,9.40
2017-11-03T19:53:00.854Z,9.40
2017-11-03T19:55:29.163Z,9.30
2017-11-03T19:57:58.329Z,9.20
2017-11-03T20:00:26.754Z,9.20
2017-11-03T20:02:55.833Z,9.10
2017-11-03T20:05:24.224Z,9.10
2017-11-03T20:07:53.264Z,8.90
2017-11-03T20:10:21.550Z,8.80
2017-11-03T20:12:49.809Z,8.80
2017-11-03T20:15:18.097Z,8.80
2017-11-03T20:17:46.375Z,8.80
2017-11-03T20:20:14.780Z,8.70
2017-11-03T20:22:43.183Z,8.60
2017-11-03T20:25:12.220Z,8.60
2017-11-03T20:27:40.561Z,8.50
2017-11-03T20:30:09.595Z,8.60
2017-11-03T20:32:37.857Z,8.50
2017-11-03T20:35:06.375Z,8.50
2017-11-03T20:37:35.421Z,8.60
2017-11-03T20:40:03.688Z,8.60
2017-11-03T20:42:32.737Z,8.50
2017-11-03T20:45:00.998Z,8.50
2017-11-03T20:47:29.287Z,8.50
2017-11-03T20:49:57.553Z,8.50
2017-11-03T20:52:25.862Z,8.50
2017-11-03T20:54:54.899Z,8.30
2017-11-03T20:57:23.180Z,8.30
2017-11-03T20:59:51.449Z,8.30
2017-11-03T21:02:19.741Z,8.20
2017-11-03T21:04:48.005Z,8.20
2017-11-03T21:07:16.318Z,8.20
2017-11-03T21:09:44.586Z,8.30
2017-11-03T21:12:12.860Z,8.30
2017-11-03T21:14:41.124Z,8.30
2017-11-03T21:17:09.407Z,8.30
2017-11-03T21:19:37.660Z,8.30
2017-11-03T21:22:05.980Z,8.30
2017-11-03T21:24:34.274Z,8.30
2017-11-03T21:27:02.649Z,8.30
2017-11-03T21:29:31.003Z,8.20
2017-11-03T21:31:59.292Z,8.20
2017-11-03T21:34:27.552Z,8.20
2017-11-03T21:36:55.856Z,8.30
2017-11-03T21:39:24.112Z,8.30
2017-11-03T21:41:52.436Z,8.30
2017-11-03T21:44:20.712Z,8.50
2017-11-03T21:46:48.977Z,8.80
2017-11-03T21:49:18.004Z,9.00
2017-11-03T21:51:46.304Z,9.00
2017-11-03T21:54:14.566Z,9.10
2017-11-03T21:56:42.850Z,9.20
2017-11-03T21:59:11.143Z,9.30
2017-11-03T22:01:39.410Z,9.30
2017-11-03T22:04:07.674Z,9.20
2017-11-03T22:06:35.953Z,9.20
2017-11-03T22:09:04.224Z,9.20
2017-11-03T22:11:32.638Z,9.20
2017-11-03T22:14:00.883Z,9.30
2017-11-03T22:16:29.346Z,9.40
2017-11-03T22:18:58.381Z,9.50
2017-11-03T22:21:26.683Z,9.50
2017-11-03T22:23:54.940Z,9.60
2017-11-03T22:26:23.447Z,9.70
2017-11-03T22:28:51.718Z,9.70
2017-11-03T22:31:20.032Z,9.80
2017-11-03T22:33:49.080Z,9.80
2017-11-03T22:36:17.348Z,9.80
2017-11-03T22:38:45.629Z,9.80
2017-11-03T22:41:13.905Z,9.70
2017-11-03T22:43:42.179Z,9.70
2017-11-03T22:46:10.443Z,9.70
2017-11-03T22:48:38.728Z,9.70
2017-11-03T22:51:06.984Z,9.60
2017-11-03T22:53:35.278Z,9.60
2017-11-03T22:56:03.590Z,9.50
2017-11-03T22:58:31.868Z,9.40
2017-11-03T23:01:00.133Z,9.40
2017-11-03T23:03:28.418Z,9.40
2017-11-03T23:05:56.694Z,9.40
2017-11-03T23:08:25.026Z,9.20
2017-11-03T23:10:53.312Z,9.20
2017-11-03T23:13:21.625Z,9.10
2017-11-03T23:15:49.997Z,9.00
2017-11-03T23:18:18.278Z,9.00
2017-11-03T23:20:46.563Z,8.90
2017-11-03T23:23:14.828Z,8.90
2017-11-03T23:25:43.108Z,8.90
2017-11-03T23:28:11.512Z,8.80
2017-11-03T23:30:39.773Z,8.70
2017-11-03T23:33:08.157Z,8.70
2017-11-03T23:35:36.525Z,8.70
2017-11-03T23:38:04.922Z,8.60
2017-11-03T23:40:33.176Z,8.50
2017-11-03T23:43:01.467Z,8.50
2017-11-03T23:45:29.715Z,8.40
2017-11-03T23:47:57.996Z,8.40
2017-11-03T23:50:26.262Z,8.40
2017-11-03T23:52:54.539Z,8.40
2017-11-03T23:55:22.792Z,8.50
2017-11-03T23:57:51.953Z,8.60
